createdAt,value
2022-12-25T00:02:04.724Z,2.83
2022-12-25T00:04:31.582Z,2.70
2022-12-25T00:06:59.685Z,2.78
2022-12-25T00:09:26.610Z,2.83
2022-12-25T00:11:53.563Z,2.50
2022-12-25T00:14:20.393Z,2.70
2022-12-25T00:16:47.345Z,2.75
2022-12-25T00:19:14.233Z,2.72
2022-12-25T00:21:41.046Z,2.85
2022-12-25T00:24:07.980Z,2.90
2022-12-25T00:26:34.813Z,2.65
2022-12-25T00:29:01.719Z,2.50
2022-12-25T00:31:28.753Z,2.80
2022-12-25T00:33:55.782Z,2.35
2022-12-25T00:36:23.829Z,2.50
2022-12-25T00:38:50.809Z,2.67
2022-12-25T00:41:43.204Z,2.88
2022-12-25T00:44:12.662Z,2.70
2022-12-25T00:46:40.301Z,2.83
2022-12-25T00:49:07.276Z,2.17
2022-12-25T00:51:34.135Z,2.78
2022-12-25T00:54:01.120Z,2.65
2022-12-25T00:56:28.088Z,2.70
2022-12-25T00:58:55.885Z,2.70
2022-12-25T01:01:22.914Z,2.58
2022-12-25T01:03:49.882Z,2.60
2022-12-25T01:06:16.742Z,2.67
2022-12-25T01:09:03.810Z,2.65
2022-12-25T01:11:31.126Z,2.67
2022-12-25T01:13:58.418Z,2.50
2022-12-25T01:16:25.690Z,2.47
2022-12-25T01:18:52.614Z,2.40
2022-12-25T01:21:22.713Z,2.35
2022-12-25T01:23:51.107Z,2.70
2022-12-25T01:26:18.318Z,2.40
2022-12-25T01:28:45.677Z,2.50
2022-12-25T01:31:15.034Z,2.50
2022-12-25T01:33:43.144Z,2.75
2022-12-25T01:36:21.087Z,2.50
2022-12-25T01:38:48.888Z,2.60
2022-12-25T01:41:16.981Z,2.70
2022-12-25T01:44:04.552Z,2.70
2022-12-25T01:46:31.993Z,2.53
2022-12-25T01:49:02.872Z,2.65
2022-12-25T01:51:35.127Z,2.60
2022-12-25T01:54:06.196Z,2.50
2022-12-25T01:56:33.462Z,2.50
2022-12-25T01:59:00.979Z,2.40
2022-12-25T02:01:27.894Z,2.45
2022-12-25T02:03:59.515Z,2.53
2022-12-25T02:06:30.608Z,2.33
2022-12-25T02:08:58.855Z,2.40
2022-12-25T02:11:44.167Z,2.30
2022-12-25T02:14:11.103Z,2.40
2022-12-25T02:16:57.691Z,2.40
2022-12-25T02:19:46.872Z,2.30
2022-12-25T02:22:40.230Z,2.30
2022-12-25T02:25:30.411Z,2.25
2022-12-25T02:28:18.790Z,2.40
2022-12-25T02:31:11.173Z,2.50
2022-12-25T02:34:04.556Z,2.55
2022-12-25T02:36:50.753Z,2.30
2022-12-25T02:39:42.149Z,2.30
2022-12-25T02:42:13.651Z,2.80
2022-12-25T02:45:00.673Z,2.45
2022-12-25T02:47:46.369Z,2.22
2022-12-25T02:50:32.985Z,2.30
2022-12-25T02:53:18.869Z,2.35
2022-12-25T02:56:05.828Z,2.40
2022-12-25T02:58:54.111Z,2.30
2022-12-25T03:01:42.594Z,2.30
2022-12-25T03:04:31.189Z,2.30
2022-12-25T03:07:22.044Z,2.20
2022-12-25T03:10:14.943Z,2.30
2022-12-25T03:12:54.221Z,2.40
2022-12-25T03:18:18.608Z,2.30
2022-12-25T03:21:04.207Z,2.05
2022-12-25T03:23:51.894Z,2.33
2022-12-25T03:26:37.464Z,2.45
2022-12-25T03:29:04.564Z,2.30
2022-12-25T03:31:43.656Z,2.20
2022-12-25T03:34:46.855Z,2.50
2022-12-25T03:37:45.746Z,2.30
2022-12-25T03:40:43.040Z,2.33
2022-12-25T03:43:44.129Z,2.10
2022-12-25T03:46:33.356Z,2.40
2022-12-25T03:49:36.067Z,2.03
2022-12-25T03:52:22.063Z,2.35
2022-12-25T03:55:09.629Z,2.17
2022-12-25T03:57:55.402Z,2.20
2022-12-25T04:00:40.872Z,2.20
2022-12-25T04:03:26.243Z,2.20
2022-12-25T04:06:11.462Z,2.30
2022-12-25T04:08:56.769Z,2.08
2022-12-25T04:11:42.034Z,2.30
2022-12-25T04:14:27.326Z,2.10
2022-12-25T04:17:12.721Z,2.13
2022-12-25T04:19:59.459Z,1.98
2022-12-25T04:22:44.852Z,2.13
2022-12-25T04:25:30.067Z,1.80
2022-12-25T04:28:28.086Z,2.00
2022-12-25T04:31:13.285Z,2.20
2022-12-25T04:33:58.577Z,1.92
2022-12-25T04:36:25.399Z,2.05
2022-12-25T04:38:52.314Z,1.80
2022-12-25T04:41:19.163Z,2.20
2022-12-25T04:43:46.050Z,2.40
2022-12-25T04:46:12.974Z,2.05
2022-12-25T04:48:39.991Z,1.80
2022-12-25T04:51:14.721Z,2.00
2022-12-25T04:53:42.506Z,2.17
2022-12-25T04:56:09.479Z,1.95
2022-12-25T04:58:36.391Z,2.00
2022-12-25T05:01:04.190Z,2.38
2022-12-25T05:03:31.743Z,2.08
2022-12-25T05:05:58.952Z,1.90
2022-12-25T05:08:26.104Z,1.88
2022-12-25T05:10:52.945Z,1.95
2022-12-25T05:13:19.798Z,1.95
2022-12-25T05:15:46.731Z,2.00
2022-12-25T05:18:13.743Z,2.00
2022-12-25T05:20:40.677Z,1.90
2022-12-25T05:23:09.412Z,1.85
2022-12-25T05:25:39.778Z,2.08
2022-12-25T05:28:07.163Z,1.85
2022-12-25T05:30:35.050Z,2.00
2022-12-25T05:33:02.411Z,1.98
2022-12-25T05:35:29.295Z,1.90
2022-12-25T05:37:56.179Z,2.00
2022-12-25T05:40:23.041Z,1.92
2022-12-25T05:42:49.898Z,2.10
2022-12-25T05:45:16.856Z,1.98
2022-12-25T05:47:43.696Z,2.10
2022-12-25T05:50:10.882Z,1.70
2022-12-25T05:52:37.724Z,2.10
2022-12-25T05:55:04.922Z,1.80
2022-12-25T05:57:32.195Z,1.90
2022-12-25T05:59:59.363Z,2.00
2022-12-25T06:02:26.534Z,2.08
2022-12-25T06:04:53.553Z,1.90
2022-12-25T06:07:20.523Z,1.80
2022-12-25T06:09:47.765Z,1.83
2022-12-25T06:12:14.707Z,1.80
2022-12-25T06:14:41.565Z,1.88
2022-12-25T06:17:08.402Z,1.90
2022-12-25T06:19:35.283Z,1.75
2022-12-25T06:22:02.279Z,1.85
2022-12-25T06:24:29.290Z,1.80
2022-12-25T06:26:56.228Z,1.80
2022-12-25T06:29:23.130Z,1.80
2022-12-25T06:31:50.043Z,1.90
2022-12-25T06:34:17.041Z,1.60
2022-12-25T06:36:43.930Z,1.85
2022-12-25T06:39:10.920Z,1.30
2022-12-25T06:41:38.140Z,1.73
2022-12-25T06:44:05.160Z,1.60
2022-12-25T06:46:32.320Z,1.67
2022-12-25T06:48:59.611Z,1.70
2022-12-25T06:51:28.825Z,1.60
2022-12-25T06:53:56.394Z,1.52
2022-12-25T06:56:27.550Z,1.60
2022-12-25T06:58:56.596Z,1.60
2022-12-25T07:01:24.679Z,1.65
2022-12-25T07:03:54.942Z,1.75
2022-12-25T07:06:22.409Z,1.80
2022-12-25T07:08:49.319Z,1.80
2022-12-25T07:11:16.158Z,1.55
2022-12-25T07:13:43.067Z,1.90
2022-12-25T07:16:11.457Z,1.70
2022-12-25T07:18:38.573Z,1.50
2022-12-25T07:21:10.525Z,1.70
2022-12-25T07:23:37.345Z,1.45
2022-12-25T07:26:04.384Z,1.73
2022-12-25T07:28:31.693Z,1.63
2022-12-25T07:31:13.340Z,1.70
2022-12-25T07:33:40.693Z,1.58
2022-12-25T07:36:08.121Z,1.52
2022-12-25T07:38:39.800Z,1.83
2022-12-25T07:41:09.758Z,1.77
2022-12-25T07:43:36.671Z,1.60
2022-12-25T07:46:04.928Z,1.63
2022-12-25T07:48:32.164Z,1.50
2022-12-25T07:50:59.480Z,1.85
2022-12-25T07:53:26.892Z,1.80
2022-12-25T07:56:01.583Z,1.80
2022-12-25T07:58:29.508Z,1.70
2022-12-25T08:01:01.587Z,2.13
2022-12-25T08:03:28.560Z,2.28
2022-12-25T08:06:00.461Z,2.38
2022-12-25T08:08:27.438Z,2.70
2022-12-25T08:10:54.332Z,2.33
2022-12-25T08:13:21.295Z,2.05
2022-12-25T08:15:49.038Z,2.05
2022-12-25T08:18:16.072Z,2.17
2022-12-25T08:20:42.918Z,2.08
2022-12-25T08:23:09.780Z,2.10
2022-12-25T08:25:36.636Z,2.20
2022-12-25T08:28:03.630Z,2.00
2022-12-25T08:30:30.581Z,2.03
2022-12-25T08:32:57.479Z,2.00
2022-12-25T08:35:26.099Z,2.20
2022-12-25T08:37:52.943Z,2.20
2022-12-25T08:40:20.826Z,2.00
2022-12-25T08:42:47.698Z,2.53
2022-12-25T08:45:14.628Z,2.00
2022-12-25T08:47:41.541Z,2.05
2022-12-25T08:50:08.948Z,2.08
2022-12-25T08:52:36.032Z,2.10
2022-12-25T08:55:03.008Z,2.47
2022-12-25T08:57:29.897Z,2.10
2022-12-25T08:59:56.877Z,2.03
2022-12-25T09:02:24.006Z,1.92
2022-12-25T09:04:51.046Z,2.17
2022-12-25T09:07:18.039Z,2.42
2022-12-25T09:09:44.916Z,1.92
2022-12-25T09:12:11.816Z,2.30
2022-12-25T09:14:38.781Z,1.90
2022-12-25T09:17:05.719Z,1.83
2022-12-25T09:19:32.682Z,2.00
2022-12-25T09:21:59.497Z,2.00
2022-12-25T09:24:26.411Z,2.00
2022-12-25T09:26:54.198Z,1.92
2022-12-25T09:29:21.150Z,2.50
2022-12-25T09:31:48.217Z,1.80
2022-12-25T09:34:18.860Z,1.88
2022-12-25T09:36:46.029Z,1.95
2022-12-25T09:39:12.932Z,1.90
2022-12-25T09:41:48.956Z,2.00
2022-12-25T09:44:26.047Z,1.90
2022-12-25T09:47:04.166Z,1.67
2022-12-25T09:49:52.001Z,2.00
2022-12-25T09:52:21.637Z,2.00
2022-12-25T09:55:04.048Z,1.90
2022-12-25T09:57:32.241Z,1.88
2022-12-25T09:59:59.224Z,1.75
2022-12-25T10:03:04.671Z,1.80
2022-12-25T10:05:34.759Z,1.70
2022-12-25T10:08:04.638Z,1.75
2022-12-25T10:10:46.255Z,1.95
2022-12-25T10:13:18.828Z,1.88
2022-12-25T10:15:48.823Z,1.73
2022-12-25T10:18:31.897Z,1.73
2022-12-25T10:21:00.937Z,1.90
2022-12-25T10:23:37.188Z,1.70
2022-12-25T10:26:04.907Z,1.88
2022-12-25T10:28:38.877Z,1.80
2022-12-25T10:31:25.482Z,1.70
2022-12-25T10:33:53.673Z,1.80
2022-12-25T10:36:26.060Z,1.75
2022-12-25T10:38:53.155Z,1.67
2022-12-25T10:41:57.104Z,1.60
2022-12-25T10:44:27.084Z,1.80
2022-12-25T10:46:58.473Z,1.63
2022-12-25T10:49:29.958Z,1.80
2022-12-25T10:51:56.856Z,1.80
2022-12-25T10:54:25.525Z,1.80
2022-12-25T10:57:16.567Z,1.90
2022-12-25T10:59:49.224Z,1.83
2022-12-25T11:02:30.470Z,1.60
2022-12-25T11:05:08.617Z,1.42
2022-12-25T11:07:46.741Z,1.75
2022-12-25T11:10:32.912Z,1.75
2022-12-25T11:13:00.712Z,1.77
2022-12-25T11:15:37.909Z,1.70
2022-12-25T11:18:26.049Z,1.52
2022-12-25T11:20:58.197Z,1.80
2022-12-25T11:23:26.911Z,1.75
2022-12-25T11:25:56.987Z,1.70
2022-12-25T11:28:25.229Z,1.40
2022-12-25T11:30:57.186Z,1.83
2022-12-25T11:33:29.558Z,1.55
2022-12-25T11:35:58.376Z,1.50
2022-12-25T11:38:25.447Z,1.60
2022-12-25T11:40:55.427Z,1.92
2022-12-25T11:43:25.753Z,1.55
2022-12-25T11:46:17.901Z,1.70
2022-12-25T11:48:50.012Z,1.58
2022-12-25T11:51:17.907Z,1.70
2022-12-25T11:53:46.171Z,1.40
2022-12-25T11:56:22.731Z,1.60
2022-12-25T11:58:53.840Z,1.80
2022-12-25T12:01:31.892Z,1.50
2022-12-25T12:04:03.691Z,1.55
2022-12-25T12:06:38.325Z,1.60
2022-12-25T12:09:31.795Z,1.58
2022-12-25T12:12:48.267Z,1.55
2022-12-25T12:15:40.902Z,1.85
2022-12-25T12:18:28.045Z,1.70
2022-12-25T12:21:11.384Z,1.58
2022-12-25T12:23:57.158Z,1.60
2022-12-25T12:26:29.903Z,1.42
2022-12-25T12:29:01.179Z,1.60
2022-12-25T12:31:42.849Z,1.60
2022-12-25T12:34:32.673Z,1.60
2022-12-25T12:37:06.642Z,1.80
2022-12-25T12:39:40.636Z,1.85
2022-12-25T12:42:40.190Z,1.80
2022-12-25T12:45:42.743Z,1.90
2022-12-25T12:48:16.832Z,2.00
2022-12-25T12:50:43.824Z,1.70
2022-12-25T12:53:22.437Z,1.85
2022-12-25T12:55:49.587Z,1.50
2022-12-25T12:58:45.052Z,1.90
2022-12-25T13:01:27.282Z,2.00
2022-12-25T13:04:34.031Z,1.98
2022-12-25T13:07:44.878Z,1.80
2022-12-25T13:10:24.138Z,1.80
2022-12-25T13:12:57.083Z,1.67
2022-12-25T13:15:27.371Z,1.60
2022-12-25T13:17:56.714Z,1.50
2022-12-25T13:23:34.042Z,1.60
2022-12-25T13:26:00.891Z,1.60
2022-12-25T13:28:32.137Z,1.42
2022-12-25T13:31:15.968Z,1.55
2022-12-25T13:34:05.150Z,1.50
2022-12-25T13:36:40.127Z,1.48
2022-12-25T13:39:16.037Z,1.45
2022-12-25T13:42:06.695Z,1.42
2022-12-25T13:44:41.186Z,1.80
2022-12-25T13:47:18.308Z,1.60
2022-12-25T13:49:46.138Z,1.60
2022-12-25T13:52:37.719Z,1.52
2022-12-25T13:55:22.424Z,1.67
2022-12-25T13:57:55.196Z,1.50
2022-12-25T14:00:31.079Z,1.58
2022-12-25T14:02:58.892Z,1.70
2022-12-25T14:05:27.954Z,1.50
2022-12-25T14:07:57.035Z,1.50
2022-12-25T14:10:27.060Z,1.42
2022-12-25T14:12:55.775Z,1.80
2022-12-25T14:15:23.456Z,1.50
2022-12-25T14:17:51.117Z,1.50
2022-12-25T14:20:44.412Z,1.75
2022-12-25T14:23:15.171Z,1.42
2022-12-25T14:25:44.493Z,1.60
2022-12-25T14:30:45.682Z,1.40
2022-12-25T14:33:18.180Z,1.40
2022-12-25T14:35:45.629Z,1.80
2022-12-25T14:38:22.172Z,1.55
2022-12-25T14:41:05.342Z,1.75
2022-12-25T14:43:33.019Z,1.58
2022-12-25T14:46:02.836Z,1.58
2022-12-25T14:48:33.617Z,1.67
2022-12-25T14:51:05.956Z,1.52
2022-12-25T14:53:41.961Z,1.67
2022-12-25T14:56:10.152Z,1.70
2022-12-25T14:58:41.669Z,1.55
2022-12-25T15:01:23.390Z,1.60
2022-12-25T15:03:50.506Z,1.70
2022-12-25T15:06:22.481Z,1.80
2022-12-25T15:09:01.086Z,1.70
2022-12-25T15:11:29.900Z,1.50
2022-12-25T15:13:56.875Z,1.73
2022-12-25T15:16:26.078Z,1.58
2022-12-25T15:21:28.622Z,1.55
2022-12-25T15:23:56.991Z,1.48
2022-12-25T15:26:24.872Z,1.70
2022-12-25T15:28:52.267Z,1.52
2022-12-25T15:31:27.186Z,1.70
2022-12-25T15:33:59.508Z,1.70
2022-12-25T15:36:27.226Z,1.70
2022-12-25T15:38:54.835Z,1.75
2022-12-25T15:41:52.841Z,1.50
2022-12-25T15:44:19.901Z,1.80
2022-12-25T15:46:47.442Z,1.60
2022-12-25T15:49:15.137Z,1.65
2022-12-25T15:51:42.982Z,1.60
2022-12-25T15:54:10.418Z,1.65
2022-12-25T15:56:58.622Z,1.88
2022-12-25T15:59:25.459Z,1.80
2022-12-25T16:01:55.183Z,1.80
2022-12-25T16:04:23.145Z,1.58
2022-12-25T16:06:50.346Z,1.70
2022-12-25T16:09:18.268Z,1.90
2022-12-25T16:11:45.090Z,1.80
2022-12-25T16:14:12.128Z,1.88
2022-12-25T16:16:39.243Z,1.95
2022-12-25T16:19:06.644Z,1.83
2022-12-25T16:21:45.043Z,2.20
2022-12-25T16:24:12.283Z,2.20
2022-12-25T16:26:39.696Z,2.15
2022-12-25T16:29:07.557Z,2.20
2022-12-25T16:31:35.905Z,2.10
2022-12-25T16:34:03.078Z,1.98
2022-12-25T16:36:30.368Z,2.25
2022-12-25T16:38:57.224Z,2.20
2022-12-25T16:41:24.346Z,2.10
2022-12-25T16:43:51.198Z,2.00
2022-12-25T16:46:20.730Z,2.10
2022-12-25T16:48:47.730Z,2.40
2022-12-25T16:51:19.342Z,2.35
2022-12-25T16:53:46.451Z,2.05
2022-12-25T16:56:16.135Z,2.40
2022-12-25T16:58:45.803Z,2.58
2022-12-25T17:01:15.478Z,2.40
2022-12-25T17:03:43.122Z,2.30
2022-12-25T17:06:19.841Z,2.45
2022-12-25T17:08:47.595Z,2.20
2022-12-25T17:11:15.101Z,2.13
2022-12-25T17:13:45.653Z,2.30
2022-12-25T17:16:18.451Z,2.38
2022-12-25T17:18:45.601Z,2.30
2022-12-25T17:21:14.574Z,2.20
2022-12-25T17:23:42.097Z,2.30
2022-12-25T17:26:09.034Z,2.55
2022-12-25T17:28:35.963Z,2.33
2022-12-25T17:31:07.991Z,2.30
2022-12-25T17:33:39.422Z,2.70
2022-12-25T17:36:09.051Z,2.45
2022-12-25T17:38:36.508Z,2.25
2022-12-25T17:41:05.575Z,2.40
2022-12-25T17:43:33.681Z,2.55
2022-12-25T17:46:05.607Z,2.60
2022-12-25T17:48:32.997Z,2.55
2022-12-25T17:51:04.523Z,2.53
2022-12-25T17:53:31.633Z,2.58
2022-12-25T17:55:59.058Z,2.70
2022-12-25T17:58:26.960Z,2.40
2022-12-25T18:00:54.319Z,2.38
2022-12-25T18:03:21.725Z,2.67
2022-12-25T18:05:48.835Z,2.50
2022-12-25T18:08:15.870Z,2.78
2022-12-25T18:10:44.169Z,2.67
2022-12-25T18:13:12.276Z,2.53
2022-12-25T18:15:40.565Z,2.38
2022-12-25T18:18:08.230Z,3.00
2022-12-25T18:20:39.922Z,2.70
2022-12-25T18:23:10.620Z,2.38
2022-12-25T18:25:43.405Z,2.42
2022-12-25T18:28:10.568Z,2.75
2022-12-25T18:30:41.658Z,2.90
2022-12-25T18:33:09.195Z,2.60
2022-12-25T18:35:44.242Z,2.65
2022-12-25T18:38:11.733Z,2.55
2022-12-25T18:40:46.961Z,2.55
2022-12-25T18:43:14.662Z,2.40
2022-12-25T18:45:42.329Z,2.83
2022-12-25T18:48:10.513Z,2.63
2022-12-25T18:50:39.368Z,2.42
2022-12-25T18:53:07.015Z,2.90
2022-12-25T18:55:35.582Z,2.60
2022-12-25T18:58:02.550Z,2.70
2022-12-25T19:00:29.488Z,2.90
2022-12-25T19:02:58.501Z,2.47
2022-12-25T19:05:25.736Z,2.70
2022-12-25T19:07:52.658Z,2.67
2022-12-25T19:10:19.614Z,2.75
2022-12-25T19:12:46.675Z,2.80
2022-12-25T19:15:13.644Z,2.90
2022-12-25T19:17:40.592Z,2.67
2022-12-25T19:20:08.165Z,2.70
2022-12-25T19:22:35.062Z,2.88
2022-12-25T19:25:02.006Z,2.80
2022-12-25T19:27:28.912Z,2.92
2022-12-25T19:29:55.796Z,2.92
2022-12-25T19:32:22.825Z,2.58
2022-12-25T19:34:49.731Z,2.90
2022-12-25T19:37:16.703Z,2.85
2022-12-25T19:39:46.802Z,2.63
2022-12-25T19:42:14.928Z,2.90
2022-12-25T19:44:42.402Z,2.78
2022-12-25T19:47:10.437Z,2.83
2022-12-25T19:49:37.334Z,2.80
2022-12-25T19:52:04.444Z,2.63
2022-12-25T19:54:31.403Z,2.97
2022-12-25T19:56:58.275Z,2.97
2022-12-25T19:59:25.175Z,2.97
2022-12-25T20:01:52.182Z,2.60
2022-12-25T20:04:19.260Z,2.90
2022-12-25T20:06:46.454Z,2.70
2022-12-25T20:09:19.754Z,2.80
2022-12-25T20:11:48.117Z,3.10
2022-12-25T20:14:16.332Z,3.20
2022-12-25T20:16:43.914Z,2.70
2022-12-25T20:19:12.649Z,2.80
2022-12-25T20:21:40.203Z,3.00
2022-12-25T20:24:10.127Z,3.10
2022-12-25T20:26:38.286Z,2.70
2022-12-25T20:29:05.647Z,2.90
2022-12-25T20:31:34.346Z,3.00
2022-12-25T20:34:06.190Z,2.83
2022-12-25T20:36:37.197Z,3.05
2022-12-25T20:39:08.541Z,2.90
2022-12-25T20:41:35.749Z,2.72
2022-12-25T20:44:04.119Z,2.75
2022-12-25T20:46:31.193Z,2.93
2022-12-25T20:48:58.234Z,2.90
2022-12-25T20:51:26.902Z,3.05
2022-12-25T20:53:54.440Z,3.00
2022-12-25T20:56:23.730Z,3.00
2022-12-25T20:58:58.761Z,3.00
2022-12-25T21:01:26.542Z,3.08
2022-12-25T21:03:54.170Z,3.15
2022-12-25T21:06:21.838Z,3.00
2022-12-25T21:08:48.785Z,3.03
2022-12-25T21:11:16.819Z,3.10
2022-12-25T21:13:45.278Z,3.17
2022-12-25T21:16:18.959Z,3.43
2022-12-25T21:18:46.927Z,2.67
2022-12-25T21:21:14.553Z,2.90
2022-12-25T21:23:42.042Z,3.10
2022-12-25T21:26:15.842Z,3.15
2022-12-25T21:28:42.998Z,3.30
2022-12-25T21:31:10.652Z,2.90
2022-12-25T21:33:53.030Z,3.30
2022-12-25T21:36:29.040Z,3.10
2022-12-25T21:39:07.023Z,3.13
2022-12-25T21:41:35.181Z,2.72
2022-12-25T21:44:02.104Z,3.03
2022-12-25T21:46:29.430Z,3.13
2022-12-25T21:48:57.171Z,3.33
2022-12-25T21:51:47.975Z,3.33
2022-12-25T21:54:15.659Z,3.40
2022-12-25T21:56:45.452Z,2.83
2022-12-25T21:59:15.418Z,2.97
2022-12-25T22:01:43.142Z,2.90
2022-12-25T22:04:11.532Z,3.08
2022-12-25T22:06:57.677Z,2.83
2022-12-25T22:09:24.751Z,2.83
2022-12-25T22:12:10.187Z,3.33
2022-12-25T22:14:55.277Z,3.05
2022-12-25T22:17:46.168Z,3.17
2022-12-25T22:20:30.630Z,3.30
2022-12-25T22:22:58.143Z,3.28
2022-12-25T22:25:25.390Z,3.20
2022-12-25T22:27:52.403Z,3.10
2022-12-25T22:30:22.455Z,3.13
2022-12-25T22:32:49.470Z,3.67
2022-12-25T22:35:16.799Z,3.15
2022-12-25T22:37:43.870Z,3.10
2022-12-25T22:40:13.053Z,3.10
2022-12-25T22:42:40.865Z,3.20
2022-12-25T22:45:08.352Z,3.13
2022-12-25T22:47:35.547Z,2.65
2022-12-25T22:50:02.454Z,2.70
2022-12-25T22:52:29.453Z,2.92
2022-12-25T22:54:56.397Z,2.90
2022-12-25T22:57:23.232Z,3.00
2022-12-25T22:59:52.816Z,2.90
2022-12-25T23:02:20.069Z,2.75
2022-12-25T23:04:47.199Z,2.78
2022-12-25T23:07:15.132Z,2.90
2022-12-25T23:09:43.306Z,2.88
2022-12-25T23:12:30.479Z,3.03
2022-12-25T23:14:57.419Z,3.25
2022-12-25T23:17:42.843Z,2.95
2022-12-25T23:20:29.059Z,2.95
2022-12-25T23:23:14.367Z,2.67
2022-12-25T23:26:00.258Z,3.00
2022-12-25T23:28:45.609Z,2.72
2022-12-25T23:31:12.552Z,2.90
2022-12-25T23:33:39.473Z,2.80
2022-12-25T23:36:06.651Z,2.88
2022-12-25T23:38:33.461Z,2.95
2022-12-25T23:41:00.359Z,2.90
2022-12-25T23:43:27.254Z,2.90
2022-12-25T23:45:54.134Z,3.00
2022-12-25T23:48:20.976Z,2.90
2022-12-25T23:50:48.315Z,2.92
2022-12-25T23:53:15.120Z,2.65
2022-12-25T23:55:42.771Z,2.97
2022-12-25T23:58:10.259Z,2.95
